Terminal Aerodrome Forecast
Issued by NWS Wichita, KS

Home | Current Version | Previous Version | Graphics & Text | Print | Product List | Glossary On
Versions: 1 2 3 4 5 6 7 8 9 10 11 12 13 14 15 16
000
FTUS43 KICT 221720
TAFICT
TAF
KICT 221720Z 2218/2318 23012KT P6SM FEW250
     FM222200 24008KT P6SM FEW250
     FM230000 18005KT P6SM FEW200
     FM230500 12004KT P6SM SCT250
     FM231500 12008KT P6SM BKN150=

USA.gov is the U.S. government's official web portal to all federal, state and local government web resources and services.